sensor_id;sensor_type;location;lat;lon;timestamp;pressure;altitude;pressure_sealevel;temperature;humidity
75699;BME280;64313;51.018;13.742;2023-04-20T00:01:27;100045.78;;;5.82;78.15
75699;BME280;64313;51.018;13.742;2023-04-20T00:03:52;100046.94;;;5.79;77.93
75699;BME280;64313;51.018;13.742;2023-04-20T00:06:17;100047.94;;;5.78;77.93
75699;BME280;64313;51.018;13.742;2023-04-20T00:08:45;100049.78;;;5.78;77.96
75699;BME280;64313;51.018;13.742;2023-04-20T00:11:10;100041.13;;;5.76;77.52
75699;BME280;64313;51.018;13.742;2023-04-20T00:13:36;100041.28;;;5.74;77.27
75699;BME280;64313;51.018;13.742;2023-04-20T00:16:01;100041.28;;;5.74;77.29
75699;BME280;64313;51.018;13.742;2023-04-20T00:18:27;100046.78;;;5.73;77.08
75699;BME280;64313;51.018;13.742;2023-04-20T00:20:52;100044.25;;;5.71;77.43
75699;BME280;64313;51.018;13.742;2023-04-20T00:23:17;100037.31;;;5.70;77.70
75699;BME280;64313;51.018;13.742;2023-04-20T00:25:42;100043.75;;;5.68;77.71
75699;BME280;64313;51.018;13.742;2023-04-20T00:28:08;100027.03;;;5.67;77.90
75699;BME280;64313;51.018;13.742;2023-04-20T00:30:33;100030.50;;;5.68;77.77
75699;BME280;64313;51.018;13.742;2023-04-20T00:32:58;100032.63;;;5.64;77.87
75699;BME280;64313;51.018;13.742;2023-04-20T00:35:24;100022.03;;;5.64;77.71
75699;BME280;64313;51.018;13.742;2023-04-20T00:37:50;100024.16;;;5.60;78.05
75699;BME280;64313;51.018;13.742;2023-04-20T00:40:16;100022.00;;;5.56;77.91
75699;BME280;64313;51.018;13.742;2023-04-20T00:42:41;100022.13;;;5.54;77.95
75699;BME280;64313;51.018;13.742;2023-04-20T00:45:06;100018.84;;;5.52;77.89
75699;BME280;64313;51.018;13.742;2023-04-20T00:47:32;100028.25;;;5.47;78.23
75699;BME280;64313;51.018;13.742;2023-04-20T00:50:00;100020.97;;;5.49;77.95
75699;BME280;64313;51.018;13.742;2023-04-20T00:52:29;100021.97;;;5.48;77.88
75699;BME280;64313;51.018;13.742;2023-04-20T00:54:57;100028.75;;;5.42;78.05
75699;BME280;64313;51.018;13.742;2023-04-20T00:57:22;100029.03;;;5.39;78.37
75699;BME280;64313;51.018;13.742;2023-04-20T00:59:48;100028.53;;;5.35;78.40
75699;BME280;64313;51.018;13.742;2023-04-20T01:02:13;100028.66;;;5.34;78.52
75699;BME280;64313;51.018;13.742;2023-04-20T01:04:40;100025.06;;;5.35;78.05
75699;BME280;64313;51.018;13.742;2023-04-20T01:07:06;100032.31;;;5.33;78.05
75699;BME280;64313;51.018;13.742;2023-04-20T01:09:31;100028.84;;;5.32;78.32
75699;BME280;64313;51.018;13.742;2023-04-20T01:11:57;100022.88;;;5.30;78.55
75699;BME280;64313;51.018;13.742;2023-04-20T01:14:23;100032.78;;;5.28;78.75
75699;BME280;64313;51.018;13.742;2023-04-20T01:16:48;100015.56;;;5.24;78.97
75699;BME280;64313;51.018;13.742;2023-04-20T01:19:16;100014.72;;;5.24;78.68
75699;BME280;64313;51.018;13.742;2023-04-20T01:21:41;100021.69;;;5.25;78.46
75699;BME280;64313;51.018;13.742;2023-04-20T01:24:08;100021.84;;;5.23;78.78
75699;BME280;64313;51.018;13.742;2023-04-20T01:26:33;100011.56;;;5.20;78.56
75699;BME280;64313;51.018;13.742;2023-04-20T01:28:58;100013.53;;;5.18;78.63
75699;BME280;64313;51.018;13.742;2023-04-20T01:31:23;100008.53;;;5.15;78.22
75699;BME280;64313;51.018;13.742;2023-04-20T01:33:49;100001.75;;;5.12;78.66
75699;BME280;64313;51.018;13.742;2023-04-20T01:36:15;100006.50;;;5.09;78.58
75699;BME280;64313;51.018;13.742;2023-04-20T01:38:43;100010.28;;;5.06;78.70
75699;BME280;64313;51.018;13.742;2023-04-20T01:41:09;100011.44;;;5.04;78.57
75699;BME280;64313;51.018;13.742;2023-04-20T01:43:36;100003.31;;;4.97;79.21
75699;BME280;64313;51.018;13.742;2023-04-20T01:46:03;99999.16;;;4.94;79.11
75699;BME280;64313;51.018;13.742;2023-04-20T01:48:29;100006.28;;;4.94;78.98
75699;BME280;64313;51.018;13.742;2023-04-20T01:50:54;100005.41;;;4.93;78.70
75699;BME280;64313;51.018;13.742;2023-04-20T01:53:20;100008.25;;;4.92;79.11
75699;BME280;64313;51.018;13.742;2023-04-20T01:55:46;100012.72;;;4.91;78.75
75699;BME280;64313;51.018;13.742;2023-04-20T01:58:12;100011.19;;;4.89;79.08
75699;BME280;64313;51.018;13.742;2023-04-20T02:00:37;100008.69;;;4.87;78.78
75699;BME280;64313;51.018;13.742;2023-04-20T02:03:04;100001.56;;;4.88;78.95
75699;BME280;64313;51.018;13.742;2023-04-20T02:05:30;99998.78;;;4.89;78.43
75699;BME280;64313;51.018;13.742;2023-04-20T02:07:56;100003.53;;;4.86;78.06
75699;BME280;64313;51.018;13.742;2023-04-20T02:10:21;100001.06;;;4.84;78.10
75699;BME280;64313;51.018;13.742;2023-04-20T02:12:48;99999.72;;;4.80;78.08
75699;BME280;64313;51.018;13.742;2023-04-20T02:15:14;100000.84;;;4.77;77.83
75699;BME280;64313;51.018;13.742;2023-04-20T02:17:41;99997.84;;;4.72;78.29
75699;BME280;64313;51.018;13.742;2023-04-20T02:20:08;99998.16;;;4.69;78.06
75699;BME280;64313;51.018;13.742;2023-04-20T02:22:34;100004.41;;;4.68;78.25
75699;BME280;64313;51.018;13.742;2023-04-20T02:25:01;100000.25;;;4.66;77.89
75699;BME280;64313;51.018;13.742;2023-04-20T02:27:27;100003.91;;;4.65;78.12
75699;BME280;64313;51.018;13.742;2023-04-20T02:29:52;100004.22;;;4.62;78.07
75699;BME280;64313;51.018;13.742;2023-04-20T02:32:18;99999.88;;;4.61;77.68
75699;BME280;64313;51.018;13.742;2023-04-20T02:34:43;100008.16;;;4.58;77.73
75699;BME280;64313;51.018;13.742;2023-04-20T02:37:08;100009.41;;;4.53;77.98
75699;BME280;64313;51.018;13.742;2023-04-20T02:39:34;100005.25;;;4.51;77.78
75699;BME280;64313;51.018;13.742;2023-04-20T02:41:59;100005.44;;;4.49;78.11
75699;BME280;64313;51.018;13.742;2023-04-20T02:44:34;100003.09;;;4.46;77.92
75699;BME280;64313;51.018;13.742;2023-04-20T02:47:00;99997.94;;;4.45;77.91
75699;BME280;64313;51.018;13.742;2023-04-20T02:49:26;100003.38;;;4.43;77.86
75699;BME280;64313;51.018;13.742;2023-04-20T02:51:51;100001.03;;;4.40;78.04
75699;BME280;64313;51.018;13.742;2023-04-20T02:54:16;100007.03;;;4.42;78.28
75699;BME280;64313;51.018;13.742;2023-04-20T02:56:42;100005.38;;;4.41;78.32
75699;BME280;64313;51.018;13.742;2023-04-20T02:59:08;100008.03;;;4.41;78.62
75699;BME280;64313;51.018;13.742;2023-04-20T03:01:41;100010.66;;;4.41;78.46
75699;BME280;64313;51.018;13.742;2023-04-20T03:04:22;100016.63;;;4.43;78.67
75699;BME280;64313;51.018;13.742;2023-04-20T03:06:57;100017.59;;;4.42;79.36
75699;BME280;64313;51.018;13.742;2023-04-20T03:09:26;100013.13;;;4.43;78.88
75699;BME280;64313;51.018;13.742;2023-04-20T03:12:03;100007.84;;;4.43;78.53
75699;BME280;64313;51.018;13.742;2023-04-20T03:14:48;100017.75;;;4.41;78.75
75699;BME280;64313;51.018;13.742;2023-04-20T03:17:14;100024.03;;;4.40;78.83
75699;BME280;64313;51.018;13.742;2023-04-20T03:19:40;100020.72;;;4.38;78.93
75699;BME280;64313;51.018;13.742;2023-04-20T03:22:06;100026.81;;;4.38;78.84
75699;BME280;64313;51.018;13.742;2023-04-20T03:24:32;100026.81;;;4.38;78.60
75699;BME280;64313;51.018;13.742;2023-04-20T03:27:02;100030.47;;;4.37;78.49
75699;BME280;64313;51.018;13.742;2023-04-20T03:29:56;100023.53;;;4.36;78.42
75699;BME280;64313;51.018;13.742;2023-04-20T03:32:22;100021.84;;;4.35;78.13
75699;BME280;64313;51.018;13.742;2023-04-20T03:34:47;100027.44;;;4.32;78.18
75699;BME280;64313;51.018;13.742;2023-04-20T03:37:13;100033.03;;;4.29;77.94
75699;BME280;64313;51.018;13.742;2023-04-20T03:39:38;100040.28;;;4.27;78.16
75699;BME280;64313;51.018;13.742;2023-04-20T03:42:04;100040.44;;;4.25;77.68
75699;BME280;64313;51.018;13.742;2023-04-20T03:44:30;100044.22;;;4.23;78.00
75699;BME280;64313;51.018;13.742;2023-04-20T03:46:56;100042.19;;;4.17;77.78
75699;BME280;64313;51.018;13.742;2023-04-20T03:49:23;100051.25;;;4.14;77.92
75699;BME280;64313;51.018;13.742;2023-04-20T03:51:51;100050.41;;;4.14;78.03
75699;BME280;64313;51.018;13.742;2023-04-20T03:54:17;100048.91;;;4.11;78.10
75699;BME280;64313;51.018;13.742;2023-04-20T03:56:42;100046.00;;;4.04;78.18
75699;BME280;64313;51.018;13.742;2023-04-20T03:59:10;100047.16;;;4.02;78.52
75699;BME280;64313;51.018;13.742;2023-04-20T04:01:36;100034.75;;;4.02;78.21
75699;BME280;64313;51.018;13.742;2023-04-20T04:04:03;100042.38;;;4.05;78.49
75699;BME280;64313;51.018;13.742;2023-04-20T04:06:30;100044.38;;;4.03;78.89
75699;BME280;64313;51.018;13.742;2023-04-20T04:08:59;100044.63;;;4.00;78.68
75699;BME280;64313;51.018;13.742;2023-04-20T04:11:24;100049.09;;;4.00;78.64
75699;BME280;64313;51.018;13.742;2023-04-20T04:13:50;100043.81;;;4.00;78.88
75699;BME280;64313;51.018;13.742;2023-04-20T04:16:19;100044.13;;;3.97;79.36
75699;BME280;64313;51.018;13.742;2023-04-20T04:18:46;100059.16;;;3.96;79.43
75699;BME280;64313;51.018;13.742;2023-04-20T04:21:13;100055.53;;;3.97;79.21
75699;BME280;64313;51.018;13.742;2023-04-20T04:23:43;100064.28;;;3.98;79.08
75699;BME280;64313;51.018;13.742;2023-04-20T04:26:15;100066.47;;;4.02;78.55
75699;BME280;64313;51.018;13.742;2023-04-20T04:28:43;100060.50;;;4.00;78.83
75699;BME280;64313;51.018;13.742;2023-04-20T04:31:14;100067.78;;;3.98;78.43
75699;BME280;64313;51.018;13.742;2023-04-20T04:33:42;100066.41;;;3.94;78.42
75699;BME280;64313;51.018;13.742;2023-04-20T04:36:09;100056.13;;;3.91;78.92
75699;BME280;64313;51.018;13.742;2023-04-20T04:38:38;100056.94;;;3.92;78.80
75699;BME280;64313;51.018;13.742;2023-04-20T04:41:03;100061.69;;;3.88;78.75
75699;BME280;64313;51.018;13.742;2023-04-20T04:43:30;100053.75;;;3.88;78.54
75699;BME280;64313;51.018;13.742;2023-04-20T04:46:07;100061.97;;;3.85;78.73
75699;BME280;64313;51.018;13.742;2023-04-20T04:48:37;100063.94;;;3.83;78.56
75699;BME280;64313;51.018;13.742;2023-04-20T04:51:05;100066.75;;;3.81;79.08
75699;BME280;64313;51.018;13.742;2023-04-20T04:53:30;100060.63;;;3.81;78.97
75699;BME280;64313;51.018;13.742;2023-04-20T04:55:56;100056.59;;;3.77;79.31
75699;BME280;64313;51.018;13.742;2023-04-20T04:58:23;100061.19;;;3.75;79.63
75699;BME280;64313;51.018;13.742;2023-04-20T05:00:48;100061.19;;;3.75;79.68
75699;BME280;64313;51.018;13.742;2023-04-20T05:03:13;100056.75;;;3.75;79.38
75699;BME280;64313;51.018;13.742;2023-04-20T05:05:40;100060.25;;;3.76;79.99
75699;BME280;64313;51.018;13.742;2023-04-20T05:08:05;100071.78;;;3.75;79.78
75699;BME280;64313;51.018;13.742;2023-04-20T05:10:30;100072.59;;;3.75;79.80
75699;BME280;64313;51.018;13.742;2023-04-20T05:12:56;100090.16;;;3.76;79.62
75699;BME280;64313;51.018;13.742;2023-04-20T05:15:23;100090.16;;;3.76;79.83
75699;BME280;64313;51.018;13.742;2023-04-20T05:17:48;100100.16;;;3.73;79.68
75699;BME280;64313;51.018;13.742;2023-04-20T05:20:14;100103.66;;;3.73;79.38
75699;BME280;64313;51.018;13.742;2023-04-20T05:22:39;100098.50;;;3.72;79.73
75699;BME280;64313;51.018;13.742;2023-04-20T05:25:05;100095.88;;;3.72;79.89
75699;BME280;64313;51.018;13.742;2023-04-20T05:27:31;100094.34;;;3.69;79.72
75699;BME280;64313;51.018;13.742;2023-04-20T05:29:57;100104.09;;;3.68;79.74
75699;BME280;64313;51.018;13.742;2023-04-20T05:32:22;100096.31;;;3.67;79.54
75699;BME280;64313;51.018;13.742;2023-04-20T05:34:47;100106.56;;;3.70;79.96
75699;BME280;64313;51.018;13.742;2023-04-20T05:37:14;100106.03;;;3.66;79.79
75699;BME280;64313;51.018;13.742;2023-04-20T05:39:39;100107.03;;;3.65;80.12
75699;BME280;64313;51.018;13.742;2023-04-20T05:42:04;100109.69;;;3.65;80.28
75699;BME280;64313;51.018;13.742;2023-04-20T05:44:30;100105.34;;;3.64;80.24
75699;BME280;64313;51.018;13.742;2023-04-20T05:46:55;100108.69;;;3.66;79.83
75699;BME280;64313;51.018;13.742;2023-04-20T05:49:20;100107.69;;;3.67;79.99
75699;BME280;64313;51.018;13.742;2023-04-20T05:51:46;100103.41;;;3.66;79.76
75699;BME280;64313;51.018;13.742;2023-04-20T05:54:11;100113.00;;;3.67;79.56
75699;BME280;64313;51.018;13.742;2023-04-20T05:56:36;100107.69;;;3.67;80.22
75699;BME280;64313;51.018;13.742;2023-04-20T05:59:02;100110.50;;;3.66;80.71
75699;BME280;64313;51.018;13.742;2023-04-20T06:01:27;100107.03;;;3.65;80.57
75699;BME280;64313;51.018;13.742;2023-04-20T06:03:52;100103.41;;;3.66;80.64
75699;BME280;64313;51.018;13.742;2023-04-20T06:06:18;100107.69;;;3.67;80.59
75699;BME280;64313;51.018;13.742;2023-04-20T06:08:43;100104.09;;;3.68;80.20
75699;BME280;64313;51.018;13.742;2023-04-20T06:11:08;100107.13;;;3.74;80.25
75699;BME280;64313;51.018;13.742;2023-04-20T06:13:34;100108.97;;;3.73;80.22
75699;BME280;64313;51.018;13.742;2023-04-20T06:15:59;100117.72;;;3.74;80.54
75699;BME280;64313;51.018;13.742;2023-04-20T06:18:24;100116.03;;;3.73;80.33
75699;BME280;64313;51.018;13.742;2023-04-20T06:20:50;100103.66;;;3.73;80.60
75699;BME280;64313;51.018;13.742;2023-04-20T06:23:15;100111.59;;;3.73;80.64
75699;BME280;64313;51.018;13.742;2023-04-20T06:25:41;100108.09;;;3.73;80.72
75699;BME280;64313;51.018;13.742;2023-04-20T06:28:06;100096.56;;;3.74;80.78
75699;BME280;64313;51.018;13.742;2023-04-20T06:30:32;100094.63;;;3.76;81.12
75699;BME280;64313;51.018;13.742;2023-04-20T06:32:59;100104.19;;;3.77;80.52
75699;BME280;64313;51.018;13.742;2023-04-20T06:35:24;100104.88;;;3.79;80.47
75699;BME280;64313;51.018;13.742;2023-04-20T06:37:50;100102.06;;;3.80;80.46
75699;BME280;64313;51.018;13.742;2023-04-20T06:40:16;100099.31;;;3.82;80.27
75699;BME280;64313;51.018;13.742;2023-04-20T06:42:41;100107.22;;;3.82;79.94
75699;BME280;64313;51.018;13.742;2023-04-20T06:45:07;100103.06;;;3.79;80.36
75699;BME280;64313;51.018;13.742;2023-04-20T06:47:33;100104.88;;;3.79;80.77
75699;BME280;64313;51.018;13.742;2023-04-20T06:49:59;100110.19;;;3.79;79.98
75699;BME280;64313;51.018;13.742;2023-04-20T06:52:26;100109.34;;;3.78;80.70
75699;BME280;64313;51.018;13.742;2023-04-20T06:54:52;100109.19;;;3.80;80.47
75699;BME280;64313;51.018;13.742;2023-04-20T06:57:18;100110.72;;;3.82;80.43
75699;BME280;64313;51.018;13.742;2023-04-20T06:59:43;100112.66;;;3.80;81.15
75699;BME280;64313;51.018;13.742;2023-04-20T07:02:09;100114.19;;;3.83;80.56
75699;BME280;64313;51.018;13.742;2023-04-20T07:04:34;100117.81;;;3.82;80.85
75699;BME280;64313;51.018;13.742;2023-04-20T07:06:59;100120.44;;;3.82;80.78
75699;BME280;64313;51.018;13.742;2023-04-20T07:09:25;100108.88;;;3.83;80.07
75699;BME280;64313;51.018;13.742;2023-04-20T07:11:51;100111.53;;;3.83;79.93
75699;BME280;64313;51.018;13.742;2023-04-20T07:14:16;100116.69;;;3.84;80.39
75699;BME280;64313;51.018;13.742;2023-04-20T07:16:41;100121.97;;;3.84;80.37
75699;BME280;64313;51.018;13.742;2023-04-20T07:19:07;100128.78;;;3.87;80.56
75699;BME280;64313;51.018;13.742;2023-04-20T07:21:32;100122.81;;;3.85;80.05
75699;BME280;64313;51.018;13.742;2023-04-20T07:23:58;100133.25;;;3.86;80.19
75699;BME280;64313;51.018;13.742;2023-04-20T07:26:23;100126.00;;;3.88;80.28
75699;BME280;64313;51.018;13.742;2023-04-20T07:28:50;100123.19;;;3.90;80.27
75699;BME280;64313;51.018;13.742;2023-04-20T07:31:16;100120.28;;;3.93;80.50
75699;BME280;64313;51.018;13.742;2023-04-20T07:33:42;100120.94;;;3.95;80.36
75699;BME280;64313;51.018;13.742;2023-04-20T07:36:08;100113.69;;;3.97;80.01
75699;BME280;64313;51.018;13.742;2023-04-20T07:38:33;100125.09;;;3.98;80.68
75699;BME280;64313;51.018;13.742;2023-04-20T07:40:59;100127.47;;;4.01;80.17
75699;BME280;64313;51.018;13.742;2023-04-20T07:43:24;100121.19;;;4.02;80.07
75699;BME280;64313;51.018;13.742;2023-04-20T07:45:49;100128.16;;;4.03;80.54
75699;BME280;64313;51.018;13.742;2023-04-20T07:48:15;100125.75;;;4.09;79.65
75699;BME280;64313;51.018;13.742;2023-04-20T07:50:40;100125.06;;;4.07;80.03
75699;BME280;64313;51.018;13.742;2023-04-20T07:53:05;100134.69;;;4.08;80.13
75699;BME280;64313;51.018;13.742;2023-04-20T07:55:31;100137.34;;;4.08;80.17
75699;BME280;64313;51.018;13.742;2023-04-20T07:57:56;100133.69;;;4.09;80.65
75699;BME280;64313;51.018;13.742;2023-04-20T08:00:22;100127.97;;;4.14;79.91
75699;BME280;64313;51.018;13.742;2023-04-20T08:02:47;100121.69;;;4.15;80.00
75699;BME280;64313;51.018;13.742;2023-04-20T08:05:13;100142.72;;;4.17;80.93
75699;BME280;64313;51.018;13.742;2023-04-20T08:07:38;100127.66;;;4.17;80.73
75699;BME280;64313;51.018;13.742;2023-04-20T08:10:05;100127.53;;;4.19;80.56
75699;BME280;64313;51.018;13.742;2023-04-20T08:12:30;100128.34;;;4.19;80.75
75699;BME280;64313;51.018;13.742;2023-04-20T08:14:55;100125.53;;;4.21;80.42
75699;BME280;64313;51.018;13.742;2023-04-20T08:17:25;100125.41;;;4.22;80.90
75699;BME280;64313;51.018;13.742;2023-04-20T08:19:50;100126.09;;;4.24;80.97
75699;BME280;64313;51.018;13.742;2023-04-20T08:22:16;100119.69;;;4.27;81.01
75699;BME280;64313;51.018;13.742;2023-04-20T08:24:41;100116.59;;;4.31;80.65
75699;BME280;64313;51.018;13.742;2023-04-20T08:27:07;100112.81;;;4.34;80.55
75699;BME280;64313;51.018;13.742;2023-04-20T08:29:33;100109.72;;;4.39;80.31
75699;BME280;64313;51.018;13.742;2023-04-20T08:31:58;100108.41;;;4.43;80.56
75699;BME280;64313;51.018;13.742;2023-04-20T08:34:23;100110.75;;;4.46;80.44
75699;BME280;64313;51.018;13.742;2023-04-20T08:36:49;100108.34;;;4.52;79.86
75699;BME280;64313;51.018;13.742;2023-04-20T08:39:18;100113.91;;;4.59;79.75
75699;BME280;64313;51.018;13.742;2023-04-20T08:41:44;100111.38;;;4.58;80.08
75699;BME280;64313;51.018;13.742;2023-04-20T08:44:09;100115.72;;;4.59;80.15
75699;BME280;64313;51.018;13.742;2023-04-20T08:46:36;100118.06;;;4.62;81.09
75699;BME280;64313;51.018;13.742;2023-04-20T08:49:02;100111.75;;;4.63;81.53
75699;BME280;64313;51.018;13.742;2023-04-20T08:51:28;100130.00;;;4.66;81.34
75699;BME280;64313;51.018;13.742;2023-04-20T08:53:55;100120.91;;;4.68;81.08
75699;BME280;64313;51.018;13.742;2023-04-20T08:56:34;100134.53;;;4.73;80.93
75699;BME280;64313;51.018;13.742;2023-04-20T08:59:01;100131.59;;;4.76;81.57
75699;BME280;64313;51.018;13.742;2023-04-20T09:01:28;100130.47;;;4.79;81.27
75699;BME280;64313;51.018;13.742;2023-04-20T09:03:54;100125.69;;;4.83;81.20
75699;BME280;64313;51.018;13.742;2023-04-20T09:06:20;100116.47;;;4.87;80.63
75699;BME280;64313;51.018;13.742;2023-04-20T09:08:47;100109.03;;;4.90;80.83
75699;BME280;64313;51.018;13.742;2023-04-20T09:11:26;100103.41;;;4.93;80.10
75699;BME280;64313;51.018;13.742;2023-04-20T09:14:12;100105.78;;;4.96;80.96
75699;BME280;64313;51.018;13.742;2023-04-20T09:16:51;100113.75;;;4.96;80.95
75699;BME280;64313;51.018;13.742;2023-04-20T09:19:22;100124.03;;;4.99;81.72
75699;BME280;64313;51.018;13.742;2023-04-20T09:21:48;100126.50;;;5.01;81.36
75699;BME280;64313;51.018;13.742;2023-04-20T09:24:15;100121.06;;;5.03;80.90
75699;BME280;64313;51.018;13.742;2023-04-20T09:26:40;100125.22;;;5.05;80.57
75699;BME280;64313;51.018;13.742;2023-04-20T09:29:15;100123.94;;;5.09;81.01
75699;BME280;64313;51.018;13.742;2023-04-20T09:31:41;100117.63;;;5.10;81.26
75699;BME280;64313;51.018;13.742;2023-04-20T09:34:06;100110.38;;;5.12;82.53
75699;BME280;64313;51.018;13.742;2023-04-20T09:36:36;100106.72;;;5.13;80.72
75699;BME280;64313;51.018;13.742;2023-04-20T09:39:06;100100.16;;;5.17;81.42
75699;BME280;64313;51.018;13.742;2023-04-20T09:41:31;100107.78;;;5.20;82.37
75699;BME280;64313;51.018;13.742;2023-04-20T09:43:57;100107.63;;;5.22;81.42
75699;BME280;64313;51.018;13.742;2023-04-20T09:46:23;100098.53;;;5.25;82.09
75699;BME280;64313;51.018;13.742;2023-04-20T09:48:49;100100.88;;;5.28;81.40
75699;BME280;64313;51.018;13.742;2023-04-20T09:51:15;100099.88;;;5.29;82.12
75699;BME280;64313;51.018;13.742;2023-04-20T09:53:40;100105.03;;;5.30;81.97
75699;BME280;64313;51.018;13.742;2023-04-20T09:56:06;100102.25;;;5.32;82.65
75699;BME280;64313;51.018;13.742;2023-04-20T09:58:32;100099.41;;;5.33;82.22
75699;BME280;64313;51.018;13.742;2023-04-20T10:00:58;100104.41;;;5.36;81.46
75699;BME280;64313;51.018;13.742;2023-04-20T10:03:25;100098.13;;;5.37;82.51
75699;BME280;64313;51.018;13.742;2023-04-20T10:05:50;100096.16;;;5.39;81.60
75699;BME280;64313;51.018;13.742;2023-04-20T10:08:19;100101.28;;;5.41;82.02
75699;BME280;64313;51.018;13.742;2023-04-20T10:10:48;100096.66;;;5.43;81.50
75699;BME280;64313;51.018;13.742;2023-04-20T10:13:14;100103.47;;;5.46;81.98
75699;BME280;64313;51.018;13.742;2023-04-20T10:15:41;100090.22;;;5.46;82.50
75699;BME280;64313;51.018;13.742;2023-04-20T10:18:13;100087.41;;;5.47;82.49
75699;BME280;64313;51.018;13.742;2023-04-20T10:20:40;100087.25;;;5.49;82.25
75699;BME280;64313;51.018;13.742;2023-04-20T10:23:08;100085.94;;;5.53;81.81
75699;BME280;64313;51.018;13.742;2023-04-20T10:25:38;100087.59;;;5.54;82.83
75699;BME280;64313;51.018;13.742;2023-04-20T10:28:04;100079.66;;;5.54;82.94
75699;BME280;64313;51.018;13.742;2023-04-20T10:30:34;100082.16;;;5.55;84.43
75699;BME280;64313;51.018;13.742;2023-04-20T10:33:08;100079.34;;;5.57;82.92
75699;BME280;64313;51.018;13.742;2023-04-20T10:35:53;100072.72;;;5.61;82.86
75699;BME280;64313;51.018;13.742;2023-04-20T10:38:35;100075.91;;;5.64;82.89
75699;BME280;64313;51.018;13.742;2023-04-20T10:41:11;100069.94;;;5.62;nan
75699;BME280;64313;51.018;13.742;2023-04-20T10:43:37;100076.75;;;5.65;83.19
75699;BME280;64313;51.018;13.742;2023-04-20T10:46:13;100070.44;;;5.66;83.54
75699;BME280;64313;51.018;13.742;2023-04-20T10:48:49;100071.25;;;5.67;83.14
75699;BME280;64313;51.018;13.742;2023-04-20T10:51:14;100068.13;;;5.71;83.11
75699;BME280;64313;51.018;13.742;2023-04-20T10:53:40;100067.31;;;5.71;83.73
75699;BME280;64313;51.018;13.742;2023-04-20T10:56:05;100075.94;;;5.73;84.22
75699;BME280;64313;51.018;13.742;2023-04-20T10:58:31;100071.31;;;5.75;83.86
75699;BME280;64313;51.018;13.742;2023-04-20T11:00:58;100052.44;;;5.78;82.75
75699;BME280;64313;51.018;13.742;2023-04-20T11:03:26;100070.53;;;5.82;84.07
75699;BME280;64313;51.018;13.742;2023-04-20T11:05:52;100064.88;;;5.85;83.55
75699;BME280;64313;51.018;13.742;2023-04-20T11:08:17;100061.22;;;5.86;83.12
75699;BME280;64313;51.018;13.742;2023-04-20T11:10:43;100056.59;;;5.89;82.75
75699;BME280;64313;51.018;13.742;2023-04-20T11:13:18;100054.63;;;5.91;82.57
75699;BME280;64313;51.018;13.742;2023-04-20T11:15:43;100055.31;;;5.93;83.13
75699;BME280;64313;51.018;13.742;2023-04-20T11:18:09;100055.16;;;5.94;82.84
75699;BME280;64313;51.018;13.742;2023-04-20T11:20:35;100051.69;;;5.94;83.52
75699;BME280;64313;51.018;13.742;2023-04-20T11:23:01;100047.03;;;5.96;83.42
75699;BME280;64313;51.018;13.742;2023-04-20T11:25:29;100056.50;;;5.98;83.02
75699;BME280;64313;51.018;13.742;2023-04-20T11:28:03;100047.38;;;6.01;82.67
75699;BME280;64313;51.018;13.742;2023-04-20T11:30:37;100047.88;;;6.04;82.55
75699;BME280;64313;51.018;13.742;2023-04-20T11:33:03;100041.59;;;6.05;82.69
75699;BME280;64313;51.018;13.742;2023-04-20T11:35:28;100049.22;;;6.09;82.53
75699;BME280;64313;51.018;13.742;2023-04-20T11:37:59;100036.63;;;6.11;82.40
75699;BME280;64313;51.018;13.742;2023-04-20T11:40:25;100039.97;;;6.13;83.04
75699;BME280;64313;51.018;13.742;2023-04-20T11:42:50;100027.19;;;6.16;82.13
75699;BME280;64313;51.018;13.742;2023-04-20T11:45:16;100033.16;;;6.18;82.67
75699;BME280;64313;51.018;13.742;2023-04-20T11:47:41;100025.69;;;6.22;82.55
75699;BME280;64313;51.018;13.742;2023-04-20T11:50:07;100029.03;;;6.24;83.15
75699;BME280;64313;51.018;13.742;2023-04-20T11:52:34;100025.41;;;6.25;82.72
75699;BME280;64313;51.018;13.742;2023-04-20T11:54:59;100033.84;;;6.28;82.43
75699;BME280;64313;51.018;13.742;2023-04-20T11:57:25;100023.72;;;6.32;82.60
75699;BME280;64313;51.018;13.742;2023-04-20T11:59:51;100025.88;;;6.37;82.52
75699;BME280;64313;51.018;13.742;2023-04-20T12:02:16;100023.91;;;6.39;83.16
75699;BME280;64313;51.018;13.742;2023-04-20T12:04:42;100021.09;;;6.40;82.40
75699;BME280;64313;51.018;13.742;2023-04-20T12:07:07;100026.56;;;6.47;82.59
75699;BME280;64313;51.018;13.742;2023-04-20T12:09:33;100022.25;;;6.46;82.75
75699;BME280;64313;51.018;13.742;2023-04-20T12:12:02;100025.41;;;6.49;82.49
75699;BME280;64313;51.018;13.742;2023-04-20T12:14:28;100022.41;;;6.53;82.47
75699;BME280;64313;51.018;13.742;2023-04-20T12:16:53;100022.25;;;6.54;83.49
75699;BME280;64313;51.018;13.742;2023-04-20T12:19:18;100021.09;;;6.57;82.72
75699;BME280;64313;51.018;13.742;2023-04-20T12:21:44;100022.59;;;6.59;82.69
75699;BME280;64313;51.018;13.742;2023-04-20T12:24:11;100021.28;;;6.63;83.03
75699;BME280;64313;51.018;13.742;2023-04-20T12:26:36;100021.75;;;6.67;82.49
75699;BME280;64313;51.018;13.742;2023-04-20T12:29:02;100005.47;;;6.70;83.21
75699;BME280;64313;51.018;13.742;2023-04-20T12:31:27;100004.31;;;6.72;83.90
75699;BME280;64313;51.018;13.742;2023-04-20T12:33:52;100008.66;;;6.74;nan
75699;BME280;64313;51.018;13.742;2023-04-20T12:36:18;100009.97;;;6.78;84.46
75699;BME280;64313;51.018;13.742;2023-04-20T12:38:43;100006.13;;;6.80;83.13
75699;BME280;64313;51.018;13.742;2023-04-20T12:41:12;100003.16;;;6.83;83.63
75699;BME280;64313;51.018;13.742;2023-04-20T12:43:38;100002.00;;;6.86;83.29
75699;BME280;64313;51.018;13.742;2023-04-20T12:46:04;99999.81;;;6.89;83.18
75699;BME280;64313;51.018;13.742;2023-04-20T12:48:29;99998.66;;;6.92;84.30